createdAt,value
2023-01-29T00:02:12.889Z,9.52
2023-01-29T00:04:42.509Z,8.40
2023-01-29T00:07:14.555Z,9.43
2023-01-29T00:09:41.676Z,10.30
2023-01-29T00:12:09.115Z,8.20
2023-01-29T00:14:36.336Z,8.13
2023-01-29T00:17:03.543Z,9.52
2023-01-29T00:19:33.182Z,8.98
2023-01-29T00:22:00.603Z,9.40
2023-01-29T00:24:30.327Z,10.30
2023-01-29T00:26:57.511Z,10.45
2023-01-29T00:29:24.724Z,10.40
2023-01-29T00:31:51.985Z,9.73
2023-01-29T00:34:19.260Z,9.03
2023-01-29T00:36:46.462Z,9.90
2023-01-29T00:39:13.673Z,9.70
2023-01-29T00:42:01.075Z,9.25
2023-01-29T00:44:46.531Z,8.88
2023-01-29T00:47:31.140Z,10.10
2023-01-29T00:50:00.910Z,9.82
2023-01-29T00:52:28.887Z,8.30
2023-01-29T00:54:59.656Z,9.07
2023-01-29T00:57:28.890Z,9.15
2023-01-29T00:59:56.061Z,9.47
2023-01-29T01:02:42.358Z,8.18
2023-01-29T01:05:14.037Z,8.10
2023-01-29T01:07:42.196Z,8.88
2023-01-29T01:10:23.044Z,9.48
2023-01-29T01:13:04.408Z,7.90
2023-01-29T01:15:35.426Z,8.77
2023-01-29T01:18:07.495Z,9.38
2023-01-29T01:20:37.202Z,9.32
2023-01-29T01:23:04.779Z,10.10
2023-01-29T01:25:36.657Z,9.43
2023-01-29T01:28:07.259Z,10.05
2023-01-29T01:30:36.951Z,8.73
2023-01-29T01:33:04.205Z,8.90
2023-01-29T01:35:38.103Z,10.35
2023-01-29T01:38:07.854Z,8.30
2023-01-29T01:40:35.345Z,8.20
2023-01-29T01:43:02.770Z,9.57
2023-01-29T01:45:31.641Z,8.82
2023-01-29T01:48:13.139Z,10.25
2023-01-29T01:50:58.176Z,9.50
2023-01-29T01:53:40.401Z,7.00
2023-01-29T01:56:16.493Z,7.90
2023-01-29T01:58:50.525Z,8.02
2023-01-29T02:01:19.010Z,9.75
2023-01-29T02:04:17.358Z,9.03
2023-01-29T02:07:06.203Z,9.23
2023-01-29T02:09:39.672Z,7.50
2023-01-29T02:12:13.117Z,8.98
2023-01-29T02:14:42.289Z,8.98
2023-01-29T02:17:18.385Z,8.90
2023-01-29T02:19:45.617Z,6.15
2023-01-29T02:22:28.312Z,8.50
2023-01-29T02:25:11.999Z,8.57
2023-01-29T02:27:41.855Z,8.77
2023-01-29T02:30:37.972Z,9.60
2023-01-29T02:33:26.387Z,9.45
2023-01-29T02:36:05.023Z,8.80
2023-01-29T02:38:50.504Z,8.23
2023-01-29T02:42:02.703Z,7.90
2023-01-29T02:44:38.734Z,7.53
2023-01-29T02:47:11.509Z,8.80
2023-01-29T02:49:49.077Z,7.90
2023-01-29T02:52:20.309Z,6.45
2023-01-29T02:55:02.914Z,8.98
2023-01-29T02:57:35.025Z,5.33
2023-01-29T03:00:11.211Z,8.35
2023-01-29T03:03:00.161Z,6.93
2023-01-29T03:05:35.424Z,9.40
2023-01-29T03:08:10.457Z,9.48
2023-01-29T03:10:45.919Z,8.03
2023-01-29T03:13:19.586Z,8.50
2023-01-29T03:16:01.424Z,5.97
2023-01-29T03:19:03.327Z,9.50
2023-01-29T03:21:51.379Z,9.57
2023-01-29T03:24:44.825Z,8.80
2023-01-29T03:27:35.524Z,8.75
2023-01-29T03:30:23.733Z,6.85
2023-01-29T03:33:03.617Z,9.27
2023-01-29T03:35:36.911Z,8.52
2023-01-29T03:38:36.778Z,8.70
2023-01-29T03:41:12.765Z,9.20
2023-01-29T03:43:46.570Z,8.80
2023-01-29T03:46:31.490Z,8.15
2023-01-29T03:48:58.670Z,9.18
2023-01-29T03:51:28.839Z,9.40
2023-01-29T03:54:15.760Z,8.60
2023-01-29T03:57:01.769Z,9.23
2023-01-29T03:59:39.433Z,7.45
2023-01-29T04:02:42.622Z,7.38
2023-01-29T04:05:20.064Z,7.73
2023-01-29T04:08:10.261Z,8.10
2023-01-29T04:10:41.445Z,8.88
2023-01-29T04:13:15.958Z,9.75
2023-01-29T04:15:54.320Z,8.48
2023-01-29T04:18:36.333Z,7.53
2023-01-29T04:21:12.024Z,9.40
2023-01-29T04:23:39.401Z,7.45
2023-01-29T04:26:22.905Z,8.10
2023-01-29T04:29:13.174Z,7.93
2023-01-29T04:31:57.429Z,8.07
2023-01-29T04:34:59.698Z,9.10
2023-01-29T04:37:34.425Z,7.10
2023-01-29T04:40:01.580Z,9.13
2023-01-29T04:42:40.022Z,7.80
2023-01-29T04:45:10.039Z,8.47
2023-01-29T04:48:05.573Z,8.77
2023-01-29T04:50:46.518Z,8.30
2023-01-29T04:53:24.837Z,8.32
2023-01-29T04:55:58.032Z,8.10
2023-01-29T04:58:40.185Z,8.00
2023-01-29T05:01:11.026Z,8.50
2023-01-29T05:03:42.954Z,9.32
2023-01-29T05:06:11.607Z,9.20
2023-01-29T05:08:41.713Z,6.72
2023-01-29T05:11:14.400Z,7.27
2023-01-29T05:13:43.327Z,8.05
2023-01-29T05:16:19.387Z,6.90
2023-01-29T05:18:47.263Z,7.43
2023-01-29T05:21:14.500Z,7.85
2023-01-29T05:23:59.472Z,4.30
2023-01-29T05:26:46.345Z,6.78
2023-01-29T05:29:16.693Z,7.75
2023-01-29T05:31:45.155Z,6.55
2023-01-29T05:34:12.428Z,5.93
2023-01-29T05:36:39.613Z,7.23
2023-01-29T05:39:08.990Z,7.40
2023-01-29T05:41:36.182Z,6.60
2023-01-29T05:44:03.399Z,6.30
2023-01-29T05:46:32.673Z,7.13
2023-01-29T05:49:02.036Z,6.83
2023-01-29T05:51:31.683Z,7.10
2023-01-29T05:53:58.895Z,5.75
2023-01-29T05:56:26.028Z,7.75
2023-01-29T05:58:53.246Z,8.07
2023-01-29T06:01:24.656Z,7.00
2023-01-29T06:03:52.144Z,6.47
2023-01-29T06:06:19.329Z,5.75
2023-01-29T06:08:47.092Z,6.65
2023-01-29T06:11:14.920Z,7.30
2023-01-29T06:13:42.228Z,6.60
2023-01-29T06:16:12.411Z,6.80
2023-01-29T06:18:40.766Z,5.03
2023-01-29T06:21:11.533Z,5.95
2023-01-29T06:23:39.176Z,6.45
2023-01-29T06:26:08.781Z,5.37
2023-01-29T06:28:36.308Z,7.20
2023-01-29T06:33:53.762Z,6.55
2023-01-29T06:36:25.865Z,6.60
2023-01-29T06:38:53.053Z,4.80
2023-01-29T06:41:25.467Z,6.05
2023-01-29T06:43:55.360Z,6.25
2023-01-29T06:46:22.494Z,6.57
2023-01-29T06:48:49.670Z,5.45
2023-01-29T06:51:17.006Z,5.73
2023-01-29T06:53:48.799Z,6.38
2023-01-29T06:56:16.009Z,6.43
2023-01-29T06:58:45.397Z,5.53
2023-01-29T07:01:29.078Z,6.18
2023-01-29T07:04:03.082Z,4.97
2023-01-29T07:06:33.430Z,7.05
2023-01-29T07:09:00.809Z,7.03
2023-01-29T07:11:28.001Z,5.70
2023-01-29T07:13:57.677Z,6.55
2023-01-29T07:16:27.457Z,5.90
2023-01-29T07:18:54.807Z,5.80
2023-01-29T07:21:24.291Z,7.93
2023-01-29T07:23:51.500Z,8.18
2023-01-29T07:26:20.796Z,7.47
2023-01-29T07:28:48.052Z,7.30
2023-01-29T07:31:15.651Z,7.88
2023-01-29T07:33:46.020Z,7.28
2023-01-29T07:36:15.761Z,7.05
2023-01-29T07:38:42.956Z,6.78
2023-01-29T07:41:13.708Z,7.17
2023-01-29T07:43:47.857Z,6.75
2023-01-29T07:46:17.534Z,7.20
2023-01-29T07:48:44.741Z,5.75
2023-01-29T07:51:11.918Z,7.13
2023-01-29T07:53:39.042Z,7.60
2023-01-29T07:56:08.551Z,6.80
2023-01-29T07:58:38.059Z,6.20
2023-01-29T08:01:07.483Z,5.00
2023-01-29T08:03:34.798Z,6.90
2023-01-29T08:06:05.389Z,6.00
2023-01-29T08:08:32.861Z,6.03
2023-01-29T08:11:04.480Z,6.35
2023-01-29T08:13:34.348Z,6.45
2023-01-29T08:16:04.821Z,6.72
2023-01-29T08:18:34.485Z,5.97
2023-01-29T08:21:04.263Z,7.40
2023-01-29T08:23:31.444Z,6.70
2023-01-29T08:25:58.810Z,5.60
2023-01-29T08:28:26.054Z,6.25
2023-01-29T08:30:55.443Z,6.33
2023-01-29T08:33:38.790Z,7.03
2023-01-29T08:36:10.002Z,6.00
2023-01-29T08:38:37.419Z,5.05
2023-01-29T08:41:05.080Z,6.80
2023-01-29T08:43:32.349Z,6.07
2023-01-29T08:45:59.547Z,5.68
2023-01-29T08:48:31.554Z,7.03
2023-01-29T08:50:59.873Z,5.05
2023-01-29T08:53:29.199Z,4.57
2023-01-29T08:55:58.850Z,6.30
2023-01-29T08:58:25.993Z,5.43
2023-01-29T09:00:55.724Z,5.50
2023-01-29T09:03:25.187Z,5.70
2023-01-29T09:05:54.702Z,4.97
2023-01-29T09:08:24.278Z,5.23
2023-01-29T09:10:51.474Z,5.20
2023-01-29T09:13:20.855Z,4.93
2023-01-29T09:15:48.020Z,4.20
2023-01-29T09:18:17.393Z,4.22
2023-01-29T09:20:45.852Z,4.53
2023-01-29T09:23:13.130Z,4.85
2023-01-29T09:25:43.109Z,3.88
2023-01-29T09:28:12.842Z,3.05
2023-01-29T09:30:40.164Z,3.83
2023-01-29T09:33:09.830Z,3.90
2023-01-29T09:35:37.041Z,4.57
2023-01-29T09:38:04.195Z,4.47
2023-01-29T09:40:37.547Z,2.78
2023-01-29T09:43:14.448Z,3.70
2023-01-29T09:45:51.854Z,3.27
2023-01-29T09:48:22.166Z,3.20
2023-01-29T09:50:53.164Z,3.28
2023-01-29T09:53:30.364Z,3.13
2023-01-29T09:56:22.051Z,2.95
2023-01-29T09:58:49.322Z,4.23
2023-01-29T10:01:19.225Z,2.60
2023-01-29T10:04:18.748Z,3.97
2023-01-29T10:07:04.714Z,3.05
2023-01-29T10:10:14.914Z,3.92
2023-01-29T10:12:55.650Z,3.60
2023-01-29T10:15:34.649Z,3.03
2023-01-29T10:18:20.284Z,3.63
2023-01-29T10:21:06.560Z,2.60
2023-01-29T10:23:36.690Z,2.63
2023-01-29T10:26:04.053Z,3.50
2023-01-29T10:28:43.286Z,3.70
2023-01-29T10:31:17.720Z,3.63
2023-01-29T10:34:14.073Z,2.60
2023-01-29T10:36:45.973Z,1.90
2023-01-29T10:39:16.563Z,2.30
2023-01-29T10:42:08.660Z,2.22
2023-01-29T10:44:58.553Z,2.05
2023-01-29T10:47:54.163Z,2.88
2023-01-29T10:50:33.537Z,2.90
2023-01-29T10:53:09.542Z,1.93
2023-01-29T10:55:43.447Z,2.20
2023-01-29T10:58:19.635Z,1.75
2023-01-29T11:00:49.798Z,2.55
2023-01-29T11:03:30.531Z,1.50
2023-01-29T11:06:24.126Z,3.23
2023-01-29T11:08:56.752Z,3.20
2023-01-29T11:11:45.264Z,3.03
2023-01-29T11:14:19.054Z,3.22
2023-01-29T11:16:48.595Z,3.05
2023-01-29T11:19:16.919Z,2.80
2023-01-29T11:22:17.578Z,3.45
2023-01-29T11:24:44.831Z,2.35
2023-01-29T11:27:23.733Z,2.58
2023-01-29T11:29:51.335Z,2.10
2023-01-29T11:32:21.230Z,0.50
2023-01-29T11:35:06.051Z,2.33
2023-01-29T11:37:35.321Z,2.65
2023-01-29T11:40:32.585Z,1.23
2023-01-29T11:43:13.017Z,1.98
2023-01-29T11:45:40.749Z,1.30
2023-01-29T11:48:15.678Z,2.60
2023-01-29T11:50:43.465Z,3.00
2023-01-29T11:53:33.886Z,2.53
2023-01-29T11:56:05.836Z,2.40
2023-01-29T11:58:35.979Z,2.40
2023-01-29T12:01:04.501Z,1.90
2023-01-29T12:03:40.182Z,2.25
2023-01-29T12:06:12.685Z,1.15
2023-01-29T12:08:42.556Z,1.90
2023-01-29T12:11:30.157Z,1.17
2023-01-29T12:14:01.133Z,1.95
2023-01-29T12:16:34.511Z,2.78
2023-01-29T12:19:11.218Z,2.47
2023-01-29T12:21:48.957Z,2.15
2023-01-29T12:24:32.275Z,1.40
2023-01-29T12:27:08.082Z,2.10
2023-01-29T12:29:46.161Z,2.58
2023-01-29T12:32:44.291Z,2.65
2023-01-29T12:35:24.192Z,1.13
2023-01-29T12:38:29.664Z,1.67
2023-01-29T12:41:17.654Z,2.60
2023-01-29T12:43:51.698Z,2.33
2023-01-29T12:46:24.445Z,1.77
2023-01-29T12:48:57.832Z,1.65
2023-01-29T12:51:42.822Z,1.63
2023-01-29T12:54:15.470Z,1.70
2023-01-29T12:56:47.257Z,2.40
2023-01-29T12:59:24.716Z,2.08
2023-01-29T13:02:32.688Z,1.80
2023-01-29T13:05:15.369Z,2.63
2023-01-29T13:07:47.623Z,1.92
2023-01-29T13:10:21.000Z,3.28
2023-01-29T13:13:14.080Z,2.25
2023-01-29T13:15:44.551Z,2.33
2023-01-29T13:18:18.007Z,2.17
2023-01-29T13:20:48.193Z,2.08
2023-01-29T13:23:25.687Z,1.88
2023-01-29T13:25:53.901Z,1.75
2023-01-29T13:28:27.076Z,2.92
2023-01-29T13:31:26.976Z,2.33
2023-01-29T13:34:14.340Z,1.58
2023-01-29T13:36:44.788Z,1.58
2023-01-29T13:39:37.941Z,1.48
2023-01-29T13:42:41.944Z,1.85
2023-01-29T13:45:54.168Z,1.87
2023-01-29T13:48:29.570Z,2.05
2023-01-29T13:51:04.575Z,1.30
2023-01-29T13:53:41.127Z,2.30
2023-01-29T13:56:42.061Z,1.20
2023-01-29T13:59:22.884Z,2.07
2023-01-29T14:01:50.015Z,2.17
2023-01-29T14:04:25.418Z,2.20
2023-01-29T14:06:55.001Z,2.05
2023-01-29T14:09:31.039Z,1.85
2023-01-29T14:12:00.687Z,2.10
2023-01-29T14:14:49.406Z,2.40
2023-01-29T14:17:18.515Z,2.47
2023-01-29T14:20:25.705Z,2.70
2023-01-29T14:23:25.396Z,1.65
2023-01-29T14:26:20.252Z,3.17
2023-01-29T14:29:00.824Z,1.75
2023-01-29T14:31:54.353Z,1.60
2023-01-29T14:34:29.501Z,1.98
2023-01-29T14:37:16.080Z,2.47
2023-01-29T14:39:47.957Z,1.03
2023-01-29T14:42:34.682Z,2.35
2023-01-29T14:45:23.161Z,2.25
2023-01-29T14:47:50.319Z,1.73
2023-01-29T14:50:31.689Z,1.58
2023-01-29T14:53:00.324Z,2.37
2023-01-29T14:55:43.644Z,2.38
2023-01-29T14:58:34.843Z,2.80
2023-01-29T15:01:06.110Z,1.83
2023-01-29T15:04:25.956Z,2.25
2023-01-29T15:07:04.799Z,2.60
2023-01-29T15:09:40.968Z,3.33
2023-01-29T15:12:42.711Z,3.35
2023-01-29T15:15:18.300Z,3.05
2023-01-29T15:17:59.173Z,3.05
2023-01-29T15:20:32.494Z,3.83
2023-01-29T15:23:00.827Z,3.20
2023-01-29T15:25:46.837Z,2.90
2023-01-29T15:28:16.217Z,3.25
2023-01-29T15:30:46.081Z,3.17
2023-01-29T15:33:14.409Z,3.17
2023-01-29T15:35:46.322Z,2.70
2023-01-29T15:38:22.827Z,2.95
2023-01-29T15:41:00.862Z,3.08
2023-01-29T15:43:36.531Z,3.70
2023-01-29T15:46:12.392Z,3.90
2023-01-29T15:48:45.379Z,2.97
2023-01-29T15:51:25.135Z,3.97
2023-01-29T15:53:56.144Z,3.17
2023-01-29T15:56:30.936Z,3.78
2023-01-29T15:59:04.032Z,3.33
2023-01-29T16:01:34.865Z,5.07
2023-01-29T16:04:03.731Z,4.95
2023-01-29T16:06:37.697Z,3.78
2023-01-29T16:09:08.075Z,3.47
2023-01-29T16:11:37.703Z,4.17
2023-01-29T16:14:06.313Z,3.25
2023-01-29T16:16:33.708Z,3.00
2023-01-29T16:19:01.547Z,3.28
2023-01-29T16:21:31.559Z,4.03
2023-01-29T16:24:02.717Z,4.30
2023-01-29T16:26:36.566Z,3.70
2023-01-29T16:29:11.174Z,3.92
2023-01-29T16:31:42.728Z,2.78
2023-01-29T16:34:29.588Z,3.75
2023-01-29T16:37:01.374Z,3.93
2023-01-29T16:39:43.462Z,3.80
2023-01-29T16:42:17.103Z,4.10
2023-01-29T16:44:51.768Z,4.75
2023-01-29T16:47:33.639Z,3.80
2023-01-29T16:50:36.072Z,3.90
2023-01-29T16:53:13.862Z,4.85
2023-01-29T16:55:45.608Z,4.28
2023-01-29T16:58:16.770Z,5.55
2023-01-29T17:00:53.129Z,5.38
2023-01-29T17:03:21.368Z,5.10
2023-01-29T17:05:50.910Z,5.00
2023-01-29T17:08:25.259Z,3.80
2023-01-29T17:10:53.235Z,4.32
2023-01-29T17:13:42.769Z,3.95
2023-01-29T17:16:28.575Z,3.03
2023-01-29T17:18:56.254Z,3.78
2023-01-29T17:21:24.295Z,3.03
2023-01-29T17:23:52.494Z,2.92
2023-01-29T17:26:23.122Z,3.22
2023-01-29T17:28:53.754Z,3.33
2023-01-29T17:31:21.033Z,2.60
2023-01-29T17:33:48.441Z,3.33
2023-01-29T17:36:17.887Z,2.63
2023-01-29T17:38:49.357Z,3.13
2023-01-29T17:41:26.687Z,3.37
2023-01-29T17:43:54.268Z,3.45
2023-01-29T17:46:22.121Z,3.13
2023-01-29T17:48:52.385Z,3.55
2023-01-29T17:51:24.793Z,3.63
2023-01-29T17:53:52.193Z,3.47
2023-01-29T17:56:27.451Z,3.38
2023-01-29T17:58:54.712Z,3.70
2023-01-29T18:01:21.955Z,2.78
2023-01-29T18:03:49.141Z,3.53
2023-01-29T18:06:27.162Z,3.27
2023-01-29T18:08:54.533Z,2.53
2023-01-29T18:11:21.734Z,3.40
2023-01-29T18:13:51.570Z,3.55
2023-01-29T18:16:21.626Z,3.03
2023-01-29T18:18:49.815Z,3.50
2023-01-29T18:21:17.488Z,3.58
2023-01-29T18:23:49.250Z,3.83
2023-01-29T18:26:17.313Z,3.65
2023-01-29T18:28:44.483Z,3.67
2023-01-29T18:31:16.797Z,4.30
2023-01-29T18:33:43.995Z,3.78
2023-01-29T18:36:11.369Z,3.42
2023-01-29T18:38:38.654Z,4.00
2023-01-29T18:41:10.562Z,4.57
2023-01-29T18:43:39.350Z,3.90
2023-01-29T18:46:09.296Z,4.05
2023-01-29T18:48:40.392Z,4.25
2023-01-29T18:51:08.861Z,4.35
2023-01-29T18:53:38.591Z,3.70
2023-01-29T18:56:06.740Z,3.70
2023-01-29T18:58:38.382Z,4.00
2023-01-29T19:01:11.749Z,3.03
2023-01-29T19:03:40.752Z,3.15
2023-01-29T19:06:09.911Z,3.40
2023-01-29T19:08:39.984Z,4.40
2023-01-29T19:11:08.910Z,3.58
2023-01-29T19:13:37.938Z,4.03
2023-01-29T19:16:12.071Z,3.88
2023-01-29T19:18:39.573Z,3.60
2023-01-29T19:21:15.269Z,2.10
2023-01-29T19:23:43.659Z,4.05
2023-01-29T19:26:11.492Z,4.80
2023-01-29T19:28:38.763Z,3.08
2023-01-29T19:31:06.018Z,4.05
2023-01-29T19:33:33.317Z,3.80
2023-01-29T19:36:00.728Z,3.90
2023-01-29T19:38:28.258Z,4.25
2023-01-29T19:40:55.541Z,4.05
2023-01-29T19:43:22.798Z,3.70
2023-01-29T19:45:56.571Z,3.00
2023-01-29T19:48:23.995Z,3.53
2023-01-29T19:50:58.595Z,3.88
2023-01-29T19:53:30.017Z,3.88
2023-01-29T19:56:04.336Z,3.28
2023-01-29T19:58:32.308Z,3.73
2023-01-29T20:01:01.742Z,3.50
2023-01-29T20:03:29.669Z,3.08
2023-01-29T20:06:03.849Z,3.05
2023-01-29T20:08:31.709Z,4.05
2023-01-29T20:10:59.209Z,4.40
2023-01-29T20:13:29.000Z,4.32
2023-01-29T20:15:56.330Z,4.38
2023-01-29T20:18:26.013Z,4.63
2023-01-29T20:20:53.474Z,4.85
2023-01-29T20:23:37.149Z,5.20
2023-01-29T20:26:09.133Z,4.38
2023-01-29T20:28:36.666Z,5.03
2023-01-29T20:31:05.449Z,4.57
2023-01-29T20:33:34.686Z,4.97
2023-01-29T20:36:05.389Z,4.33
2023-01-29T20:38:34.576Z,3.58
2023-01-29T20:41:15.524Z,4.95
2023-01-29T20:43:47.235Z,4.32
2023-01-29T20:46:14.638Z,4.35
2023-01-29T20:48:44.508Z,3.17
2023-01-29T20:51:16.845Z,3.58
2023-01-29T20:53:45.904Z,3.75
2023-01-29T20:56:15.145Z,3.33
2023-01-29T20:58:44.048Z,3.38
2023-01-29T21:01:14.323Z,3.03
2023-01-29T21:03:42.167Z,3.95
2023-01-29T21:06:11.428Z,4.28
2023-01-29T21:08:39.500Z,3.53
2023-01-29T21:11:08.809Z,3.88
2023-01-29T21:13:39.016Z,4.63
2023-01-29T21:16:06.608Z,3.67
2023-01-29T21:18:33.913Z,4.00
2023-01-29T21:21:01.124Z,3.53
2023-01-29T21:23:28.577Z,4.10
2023-01-29T21:26:03.706Z,4.00
2023-01-29T21:28:31.032Z,2.85
2023-01-29T21:31:07.267Z,3.83
2023-01-29T21:33:35.072Z,4.10
2023-01-29T21:36:02.834Z,3.97
2023-01-29T21:38:30.440Z,3.50
2023-01-29T21:41:02.420Z,4.38
2023-01-29T21:43:29.697Z,3.90
2023-01-29T21:45:59.088Z,4.55
2023-01-29T21:48:26.890Z,3.90
2023-01-29T21:50:56.543Z,4.40
2023-01-29T21:53:23.813Z,4.60
2023-01-29T21:55:50.969Z,3.45
2023-01-29T21:58:20.061Z,3.45
2023-01-29T22:00:48.935Z,3.63
2023-01-29T22:03:18.612Z,3.77
2023-01-29T22:05:45.724Z,4.10
2023-01-29T22:08:12.901Z,2.50
2023-01-29T22:10:40.863Z,2.72
2023-01-29T22:13:10.494Z,3.05
2023-01-29T22:15:37.588Z,3.37
2023-01-29T22:18:07.050Z,3.75
2023-01-29T22:20:34.279Z,3.45
2023-01-29T22:23:01.579Z,3.92
2023-01-29T22:25:28.841Z,3.70
2023-01-29T22:27:56.110Z,3.10
2023-01-29T22:30:23.446Z,4.60
2023-01-29T22:32:51.589Z,4.93
2023-01-29T22:35:18.789Z,3.80
2023-01-29T22:37:46.150Z,3.33
2023-01-29T22:40:13.687Z,3.73
2023-01-29T22:42:41.036Z,3.38
2023-01-29T22:45:11.661Z,4.03
2023-01-29T22:47:40.980Z,3.53
2023-01-29T22:50:08.627Z,2.83
2023-01-29T22:52:39.283Z,3.73
2023-01-29T22:55:10.560Z,2.65
2023-01-29T22:57:38.307Z,3.35
2023-01-29T23:00:10.488Z,4.30
2023-01-29T23:02:37.692Z,3.60
2023-01-29T23:05:07.497Z,3.10
2023-01-29T23:07:39.353Z,3.30
2023-01-29T23:10:07.301Z,3.10
2023-01-29T23:12:34.502Z,4.25
2023-01-29T23:15:01.796Z,4.07
2023-01-29T23:17:28.901Z,3.37
2023-01-29T23:19:58.510Z,3.65
2023-01-29T23:22:27.721Z,3.50
2023-01-29T23:24:57.077Z,3.55
2023-01-29T23:27:24.285Z,3.63
2023-01-29T23:29:53.558Z,3.30
2023-01-29T23:32:21.666Z,3.50
2023-01-29T23:34:48.963Z,3.88
2023-01-29T23:37:16.153Z,3.65
2023-01-29T23:39:43.320Z,3.50
2023-01-29T23:42:10.518Z,3.93
2023-01-29T23:44:37.820Z,4.00
2023-01-29T23:47:07.399Z,4.38
2023-01-29T23:49:34.965Z,3.20
2023-01-29T23:52:02.182Z,3.95
2023-01-29T23:54:31.706Z,3.70
2023-01-29T23:56:58.866Z,3.78
2023-01-29T23:59:28.913Z,3.75
